Time;durP1;ratioP1;P1;durP2;ratioP2;P2;SDS_P1;SDS_P2;PMS_P1;PMS_P2;Temp;Humidity;BMP_temperature;BMP_pressure;BME280_temperature;BME280_humidity;BME280_pressure;Samples;Min_cycle;Max_cycle;Signal;HPM_P1;HPM_P2
2022/03/21 00:00:50;;;;;;;29.40;18.50;;;1.90;72.40;;;;;;4999937;28;20230;-91
2022/03/21 00:03:18;;;;;;;32.58;19.65;;;1.90;72.50;;;;;;4997651;28;20203;-91
2022/03/21 00:05:45;;;;;;;29.90;18.83;;;1.90;73.00;;;;;;5007183;28;20274;-94
2022/03/21 00:08:12;;;;;;;30.13;17.48;;;1.90;72.10;;;;;;4999104;28;20235;-94
2022/03/21 00:10:41;;;;;;;30.80;18.67;;;1.90;72.10;;;;;;4995811;28;20190;-90
2022/03/21 00:13:08;;;;;;;29.73;17.83;;;1.90;72.60;;;;;;4996681;28;20563;-94
2022/03/21 00:15:35;;;;;;;26.40;18.73;;;1.90;72.70;;;;;;5014262;28;20180;-93
2022/03/21 00:18:05;;;;;;;26.25;17.77;;;1.80;73.30;;;;;;4997125;28;20712;-91
2022/03/21 00:20:31;;;;;;;26.48;17.10;;;1.80;72.90;;;;;;4996810;28;20204;-91
2022/03/21 00:22:58;;;;;;;33.10;19.33;;;1.80;72.30;;;;;;4995616;28;20192;-91
2022/03/21 00:25:23;;;;;;;29.05;19.90;;;1.80;72.10;;;;;;4997349;28;20231;-91
2022/03/21 00:27:49;;;;;;;32.50;20.97;;;1.80;72.20;;;;;;5013103;28;20681;-93
2022/03/21 00:30:16;;;;;;;35.70;20.50;;;1.80;72.40;;;;;;4995971;28;20386;-91
2022/03/21 00:32:43;;;;;;;34.50;20.25;;;1.80;72.50;;;;;;4995851;28;20227;-91
2022/03/21 00:35:12;;;;;;;29.58;19.15;;;1.80;72.80;;;;;;4997600;28;20273;-93
2022/03/21 00:37:38;;;;;;;32.20;19.60;;;1.80;73.10;;;;;;4996735;28;20585;-91
2022/03/21 00:40:07;;;;;;;29.95;19.65;;;1.80;72.90;;;;;;4997244;28;20279;-91
2022/03/21 00:42:40;;;;;;;35.13;19.20;;;1.80;72.90;;;;;;5003138;28;20206;-94
2022/03/21 00:45:10;;;;;;;32.33;21.85;;;1.80;72.40;;;;;;5003194;28;20649;-90
2022/03/21 00:47:37;;;;;;;33.65;20.33;;;1.70;73.00;;;;;;4997452;28;20200;-94
2022/03/21 00:50:04;;;;;;;29.05;18.30;;;1.70;73.10;;;;;;4995265;28;20188;-93
2022/03/21 00:52:32;;;;;;;27.98;18.10;;;1.70;73.80;;;;;;4995077;28;20282;-91
2022/03/21 00:54:58;;;;;;;28.90;19.55;;;1.60;73.50;;;;;;4995244;28;20233;-90
2022/03/21 00:57:24;;;;;;;26.80;18.95;;;1.60;73.30;;;;;;4997906;28;20709;-91
2022/03/21 00:59:50;;;;;;;26.93;17.57;;;1.60;73.20;;;;;;4995961;28;20242;-91
2022/03/21 01:02:16;;;;;;;28.80;19.20;;;1.50;73.00;;;;;;4996304;28;20203;-94
2022/03/21 01:04:42;;;;;;;27.10;18.60;;;1.50;73.30;;;;;;4995809;28;20190;-90
2022/03/21 01:07:08;;;;;;;26.67;18.10;;;1.50;73.70;;;;;;4996213;28;20471;-93
2022/03/21 01:09:34;;;;;;;28.93;17.43;;;1.50;73.40;;;;;;5003747;28;20240;-90
2022/03/21 01:12:03;;;;;;;27.83;18.40;;;1.50;73.50;;;;;;5005500;28;20488;-93
2022/03/21 01:14:31;;;;;;;27.65;16.02;;;1.40;72.70;;;;;;5008867;28;20192;-93
2022/03/21 01:16:57;;;;;;;26.45;17.73;;;1.40;72.40;;;;;;5007099;28;20202;-94
2022/03/21 01:19:24;;;;;;;30.63;18.83;;;1.40;72.60;;;;;;4996466;28;20278;-91
2022/03/21 01:21:49;;;;;;;26.85;19.52;;;1.30;72.90;;;;;;4994188;28;20646;-91
2022/03/21 01:24:15;;;;;;;31.30;18.80;;;1.30;73.10;;;;;;4994575;28;20195;-92
2022/03/21 01:26:41;;;;;;;28.57;18.60;;;1.20;72.80;;;;;;4994683;28;20183;-93
2022/03/21 01:29:07;;;;;;;32.13;18.63;;;1.20;72.70;;;;;;5000372;28;20476;-91
2022/03/21 01:31:33;;;;;;;29.10;18.97;;;1.20;73.00;;;;;;4994947;28;20410;-90
2022/03/21 01:33:58;;;;;;;31.20;18.60;;;1.20;73.10;;;;;;4996884;28;20199;-93
2022/03/21 01:36:24;;;;;;;28.73;18.33;;;1.20;73.70;;;;;;5001535;28;20393;-90
2022/03/21 01:38:50;;;;;;;31.10;19.20;;;1.10;73.50;;;;;;4996407;28;20941;-93
2022/03/21 01:41:16;;;;;;;24.50;17.33;;;1.10;73.20;;;;;;4997693;28;20219;-90
2022/03/21 01:44:02;;;;;;;30.63;20.13;;;1.10;73.20;;;;;;4997909;28;20254;-89
2022/03/21 01:46:28;;;;;;;31.52;18.90;;;1.10;73.00;;;;;;5000506;28;20512;-93
2022/03/21 01:48:56;;;;;;;31.02;18.50;;;1.10;72.80;;;;;;4997176;28;20259;-93
2022/03/21 01:51:22;;;;;;;25.77;17.50;;;1.10;73.00;;;;;;4994274;28;20198;-90
2022/03/21 01:56:33;;;;;;;24.88;17.75;;;1.10;72.90;;;;;;4996688;28;20664;-91
2022/03/21 01:59:00;;;;;;;26.67;17.85;;;1.10;72.80;;;;;;4994553;28;20271;-90
2022/03/21 02:01:26;;;;;;;26.83;17.13;;;1.00;72.80;;;;;;4995840;28;20199;-89
2022/03/21 02:03:52;;;;;;;27.05;17.27;;;1.00;72.80;;;;;;5010837;28;20204;-90
2022/03/21 02:06:18;;;;;;;26.40;18.30;;;1.00;72.80;;;;;;4995721;28;20175;-92
2022/03/21 02:08:44;;;;;;;23.77;16.67;;;1.00;72.80;;;;;;4994421;28;20239;-93
2022/03/21 02:11:10;;;;;;;30.40;19.17;;;1.10;72.60;;;;;;4998047;28;20419;-94
2022/03/21 02:13:37;;;;;;;24.98;16.80;;;1.00;72.60;;;;;;5011587;28;20207;-94
2022/03/21 02:16:04;;;;;;;29.75;17.83;;;1.00;72.60;;;;;;4997212;28;20195;-92
2022/03/21 02:18:31;;;;;;;27.83;17.70;;;1.00;72.60;;;;;;4996390;28;20250;-93
2022/03/21 02:21:00;;;;;;;28.67;16.52;;;1.00;72.60;;;;;;4995003;28;20212;-90
2022/03/21 02:23:30;;;;;;;25.25;17.08;;;1.00;72.70;;;;;;4994806;28;20204;-90
2022/03/21 02:25:57;;;;;;;25.38;17.00;;;1.00;72.60;;;;;;4997237;28;20238;-91
2022/03/21 02:28:24;;;;;;;24.55;17.58;;;1.00;72.90;;;;;;5011010;28;20212;-91
2022/03/21 02:30:52;;;;;;;27.58;17.95;;;1.00;73.00;;;;;;5007643;28;20180;-90
2022/03/21 02:33:19;;;;;;;25.20;17.42;;;1.00;72.70;;;;;;4997430;28;20574;-90
2022/03/21 02:35:48;;;;;;;24.02;16.33;;;1.00;73.00;;;;;;4998612;28;20188;-93
2022/03/21 02:38:16;;;;;;;28.33;18.27;;;1.00;72.80;;;;;;4997683;28;20226;-90
2022/03/21 02:40:42;;;;;;;26.15;17.52;;;1.00;72.80;;;;;;4997529;28;20246;-90
2022/03/21 02:43:08;;;;;;;30.37;17.87;;;1.00;72.60;;;;;;4998035;28;20200;-92
2022/03/21 02:45:34;;;;;;;26.10;17.13;;;1.00;72.50;;;;;;4998052;28;20176;-90
2022/03/21 02:47:59;;;;;;;23.90;16.97;;;1.00;72.30;;;;;;4998734;28;20191;-92
2022/03/21 02:50:39;;;;;;;26.93;17.57;;;0.90;72.50;;;;;;5000092;28;20227;-93
2022/03/21 02:53:08;;;;;;;27.95;18.38;;;0.90;72.80;;;;;;4998350;28;20203;-90
2022/03/21 02:55:33;;;;;;;29.77;18.15;;;0.90;73.00;;;;;;4998042;28;20191;-91
2022/03/21 02:57:59;;;;;;;23.30;16.70;;;0.80;73.00;;;;;;4998036;28;20681;-93
2022/03/21 03:00:25;;;;;;;29.53;18.77;;;0.80;72.70;;;;;;5003660;28;20227;-90
2022/03/21 03:02:51;;;;;;;24.70;18.57;;;0.80;72.70;;;;;;5001935;28;20204;-90
2022/03/21 03:05:17;;;;;;;25.02;16.25;;;0.80;72.70;;;;;;4998359;28;20417;-90
2022/03/21 03:07:43;;;;;;;24.90;18.03;;;0.70;72.80;;;;;;4996899;28;20204;-93
2022/03/21 03:10:08;;;;;;;27.87;17.07;;;0.70;72.60;;;;;;4998327;28;20262;-91
2022/03/21 03:12:34;;;;;;;27.03;16.53;;;0.70;73.10;;;;;;4996760;28;20466;-90
2022/03/21 03:15:00;;;;;;;24.83;17.57;;;0.70;72.80;;;;;;4996949;28;20773;-90
2022/03/21 03:17:26;;;;;;;25.50;16.40;;;0.60;73.10;;;;;;5000247;28;20218;-90
2022/03/21 03:19:52;;;;;;;32.73;18.13;;;0.60;73.00;;;;;;4997363;28;20576;-93
2022/03/21 03:22:18;;;;;;;23.37;16.23;;;0.60;73.00;;;;;;4996541;28;20246;-93
2022/03/21 03:24:45;;;;;;;27.38;17.90;;;0.60;73.10;;;;;;4997912;28;20404;-93
2022/03/21 03:27:11;;;;;;;27.48;17.42;;;0.60;73.10;;;;;;4996491;28;20195;-91
2022/03/21 03:29:37;;;;;;;27.30;17.17;;;0.60;73.20;;;;;;4998319;28;20235;-93
2022/03/21 03:32:05;;;;;;;29.27;17.98;;;0.60;72.70;;;;;;4999796;28;20204;-93
2022/03/21 03:34:34;;;;;;;25.60;16.73;;;0.60;73.10;;;;;;4998576;28;20217;-90
2022/03/21 03:37:00;;;;;;;32.75;15.73;;;0.60;73.00;;;;;;4999731;28;20199;-93
2022/03/21 03:39:26;;;;;;;22.90;17.50;;;0.50;73.10;;;;;;5005817;28;20242;-90
2022/03/21 03:41:52;;;;;;;23.63;17.02;;;0.50;72.90;;;;;;4995402;28;20183;-93
2022/03/21 03:44:18;;;;;;;32.63;19.83;;;0.50;72.70;;;;;;4996222;28;20188;-90
2022/03/21 03:46:44;;;;;;;30.17;18.23;;;0.50;72.60;;;;;;4998344;28;20180;-93
2022/03/21 03:49:10;;;;;;;28.88;19.13;;;0.50;72.90;;;;;;5015217;28;20963;-92
2022/03/21 03:51:36;;;;;;;30.10;19.20;;;0.50;73.00;;;;;;5012886;28;20180;-93
2022/03/21 03:54:01;;;;;;;31.27;18.20;;;0.50;72.90;;;;;;4997325;28;20187;-90
2022/03/21 03:56:27;;;;;;;25.00;16.07;;;0.50;73.10;;;;;;5014015;28;20380;-89
2022/03/21 03:58:53;;;;;;;29.73;17.10;;;0.50;73.00;;;;;;4999117;28;20691;-92
2022/03/21 04:01:18;;;;;;;30.00;16.70;;;0.50;73.20;;;;;;5003898;28;20227;-90
2022/03/21 04:03:44;;;;;;;30.93;17.50;;;0.50;73.00;;;;;;5012350;28;20210;-90
2022/03/21 04:06:15;;;;;;;29.77;18.57;;;0.50;73.00;;;;;;4998343;28;20660;-89
2022/03/21 04:08:41;;;;;;;25.25;17.15;;;0.50;73.20;;;;;;4999015;28;20291;-91
2022/03/21 04:11:07;;;;;;;27.27;17.02;;;0.50;73.20;;;;;;5016579;28;20525;-90
2022/03/21 04:13:33;;;;;;;26.80;16.33;;;0.40;73.30;;;;;;4995677;28;20196;-93
2022/03/21 04:15:58;;;;;;;29.33;17.00;;;0.40;73.40;;;;;;4997141;28;20237;-90
2022/03/21 04:18:25;;;;;;;27.53;17.10;;;0.40;73.60;;;;;;4997728;28;20734;-90
2022/03/21 04:20:52;;;;;;;25.45;17.80;;;0.40;73.70;;;;;;4995818;28;20216;-91
2022/03/21 04:23:18;;;;;;;24.45;16.98;;;0.30;73.50;;;;;;4996746;28;20192;-91
2022/03/21 04:25:44;;;;;;;33.00;19.33;;;0.30;73.80;;;;;;4995861;28;20188;-90
2022/03/21 04:28:11;;;;;;;28.38;18.00;;;0.30;73.80;;;;;;4996072;28;20199;-94
2022/03/21 04:30:38;;;;;;;30.05;18.77;;;0.30;74.00;;;;;;4996514;28;20558;-92
2022/03/21 04:33:05;;;;;;;31.27;19.17;;;0.30;74.00;;;;;;4996835;28;20206;-90
2022/03/21 04:35:31;;;;;;;35.05;19.13;;;0.20;73.70;;;;;;4996485;28;20179;-91
2022/03/21 04:37:57;;;;;;;28.77;18.58;;;0.20;73.80;;;;;;5017273;28;20231;-93
2022/03/21 04:40:23;;;;;;;40.03;21.17;;;0.20;74.00;;;;;;5011893;28;20219;-90
2022/03/21 04:42:49;;;;;;;29.77;20.10;;;0.10;74.20;;;;;;4994939;28;20224;-90
2022/03/21 04:45:16;;;;;;;30.13;19.67;;;0.10;74.50;;;;;;4996618;28;20935;-94
2022/03/21 04:47:43;;;;;;;33.65;20.80;;;0.00;74.70;;;;;;4997660;28;20404;-93
2022/03/21 04:50:09;;;;;;;25.10;19.50;;;0.00;74.70;;;;;;4995168;28;20238;-94
2022/03/21 04:52:36;;;;;;;31.17;20.00;;;0.00;75.00;;;;;;4996337;28;20195;-93
2022/03/21 04:55:02;;;;;;;32.15;20.42;;;-0.10;75.10;;;;;;4994873;28;20246;-93
2022/03/21 04:57:29;;;;;;;37.05;21.05;;;-0.10;75.20;;;;;;4995489;28;20674;-95
2022/03/21 04:59:55;;;;;;;31.90;20.55;;;-0.10;75.30;;;;;;4995409;28;20216;-91
2022/03/21 05:02:21;;;;;;;30.70;21.67;;;-0.10;75.70;;;;;;4996769;28;20262;-94
2022/03/21 05:04:48;;;;;;;36.40;21.50;;;-0.10;75.70;;;;;;4997548;28;20552;-92
2022/03/21 05:07:17;;;;;;;41.97;22.05;;;-0.10;75.70;;;;;;4995847;28;20199;-91
2022/03/21 05:09:44;;;;;;;31.38;21.02;;;-0.10;76.20;;;;;;5001209;28;20215;-93
2022/03/21 05:12:11;;;;;;;31.45;21.05;;;-0.10;77.00;;;;;;5010691;28;20230;-95
2022/03/21 05:14:38;;;;;;;32.88;21.13;;;-0.10;76.50;;;;;;4995321;28;20184;-94
2022/03/21 05:17:05;;;;;;;36.03;23.00;;;-0.10;76.30;;;;;;4996778;28;20208;-91
2022/03/21 05:19:35;;;;;;;35.00;22.90;;;-0.10;76.70;;;;;;5000582;28;20180;-93
2022/03/21 05:22:07;;;;;;;34.83;22.23;;;-0.10;76.80;;;;;;4995672;28;20204;-91
2022/03/21 05:35:57;;;;;;;39.65;22.55;;;0.00;76.30;;;;;;4998382;28;20194;-91
2022/03/21 05:38:28;;;;;;;33.35;20.30;;;0.10;76.10;;;;;;4991951;28;20205;-94
2022/03/21 05:41:00;;;;;;;36.28;21.80;;;0.10;75.60;;;;;;4999820;28;20707;-91
2022/03/21 05:43:30;;;;;;;34.72;20.48;;;0.20;75.40;;;;;;4980263;28;20685;-91
2022/03/21 05:45:56;;;;;;;30.95;20.63;;;0.20;75.30;;;;;;4996235;28;20186;-94
2022/03/21 05:51:08;;;;;;;32.38;20.60;;;0.30;74.80;;;;;;4997988;28;20183;-95
2022/03/21 05:53:34;;;;;;;37.47;21.42;;;0.40;75.00;;;;;;5004162;28;20298;-92
2022/03/21 05:56:00;;;;;;;36.43;20.57;;;0.40;75.10;;;;;;5010560;28;20212;-90
2022/03/21 05:58:27;;;;;;;32.55;20.88;;;0.50;75.00;;;;;;4993120;28;20203;-90
2022/03/21 06:00:53;;;;;;;35.83;21.55;;;0.60;74.70;;;;;;4994335;28;20230;-90
2022/03/21 06:03:19;;;;;;;35.35;20.85;;;0.60;74.90;;;;;;4997505;28;20192;-90
2022/03/21 06:05:45;;;;;;;32.63;20.83;;;0.70;74.80;;;;;;5000858;28;20203;-90
2022/03/21 06:08:11;;;;;;;36.50;21.40;;;0.70;74.80;;;;;;5016285;28;20487;-92
2022/03/21 06:10:37;;;;;;;35.53;20.92;;;0.80;75.00;;;;;;4991374;28;20455;-90
2022/03/21 06:13:08;;;;;;;34.30;22.47;;;0.90;75.30;;;;;;4995427;28;20195;-92
2022/03/21 06:15:37;;;;;;;31.52;19.75;;;1.00;75.50;;;;;;4997513;28;20429;-93
2022/03/21 06:18:15;;;;;;;34.88;21.27;;;1.00;75.40;;;;;;4996822;28;20227;-92
2022/03/21 06:20:41;;;;;;;32.20;21.27;;;1.10;75.70;;;;;;5001503;28;20211;-89
2022/03/21 06:23:07;;;;;;;30.90;20.70;;;1.30;75.60;;;;;;4997314;28;20203;-90
2022/03/21 06:25:33;;;;;;;34.40;20.70;;;1.40;75.90;;;;;;5001767;28;20437;-90
2022/03/21 06:27:59;;;;;;;32.30;20.87;;;1.50;75.40;;;;;;4997265;28;20407;-90
2022/03/21 06:30:25;;;;;;;33.08;19.55;;;1.60;75.20;;;;;;4996650;28;20192;-92
2022/03/21 06:32:53;;;;;;;34.37;21.33;;;1.70;75.20;;;;;;4996614;28;20282;-90
2022/03/21 06:35:19;;;;;;;32.03;20.80;;;1.80;75.20;;;;;;4995942;28;20524;-93
2022/03/21 06:37:45;;;;;;;32.70;20.00;;;1.90;75.50;;;;;;4994104;28;20203;-94
2022/03/21 06:40:11;;;;;;;28.63;20.07;;;2.00;75.30;;;;;;4986022;28;20467;-90
2022/03/21 06:42:36;;;;;;;29.33;19.77;;;2.10;75.30;;;;;;4998630;28;20243;-94
2022/03/21 06:45:03;;;;;;;29.40;18.80;;;2.20;75.30;;;;;;4997643;28;20437;-93
2022/03/21 06:47:29;;;;;;;28.88;19.15;;;2.30;75.10;;;;;;5000388;28;20802;-91
2022/03/21 06:49:54;;;;;;;29.00;19.10;;;2.50;74.90;;;;;;4996623;28;20179;-90
2022/03/21 06:52:20;;;;;;;28.50;17.40;;;2.60;75.00;;;;;;4996410;28;20289;-92
2022/03/21 06:54:46;;;;;;;29.93;18.73;;;2.70;74.90;;;;;;4998168;28;20184;-90
2022/03/21 06:57:12;;;;;;;28.38;18.30;;;2.80;74.70;;;;;;4998271;28;20408;-90
2022/03/21 06:59:39;;;;;;;30.90;19.80;;;2.90;74.80;;;;;;4989353;28;20554;-90
2022/03/21 07:02:05;;;;;;;36.58;19.77;;;3.00;74.80;;;;;;5002845;28;20488;-90
2022/03/21 07:04:31;;;;;;;33.20;20.50;;;3.20;74.70;;;;;;5015435;28;20179;-93
2022/03/21 07:06:57;;;;;;;31.70;20.10;;;3.30;74.80;;;;;;5007236;28;20195;-95
2022/03/21 07:09:25;;;;;;;28.98;20.23;;;3.50;74.90;;;;;;5015022;28;20693;-94
2022/03/21 07:11:52;;;;;;;29.08;20.15;;;3.60;74.60;;;;;;4995659;28;20330;-94
2022/03/21 07:14:18;;;;;;;28.95;19.38;;;3.70;74.70;;;;;;4999884;28;20191;-91
2022/03/21 07:16:44;;;;;;;32.38;20.27;;;3.90;74.50;;;;;;4997193;28;20176;-91
2022/03/21 07:19:10;;;;;;;35.10;21.63;;;4.10;74.00;;;;;;4993582;28;20187;-93
2022/03/21 07:21:36;;;;;;;29.17;20.15;;;4.20;73.90;;;;;;4987501;28;20455;-91
2022/03/21 07:24:05;;;;;;;33.85;20.98;;;4.30;73.50;;;;;;4994596;28;20255;-94
2022/03/21 07:26:32;;;;;;;28.60;19.13;;;4.40;73.50;;;;;;4992166;28;20211;-91
2022/03/21 07:29:02;;;;;;;26.92;18.25;;;4.60;73.10;;;;;;4997180;28;20210;-94
2022/03/21 07:32:23;;;;;;;26.92;19.17;;;4.70;72.60;;;;;;4991373;28;20191;-90
2022/03/21 07:34:50;;;;;;;29.17;19.45;;;4.90;72.00;;;;;;4993074;28;20212;-90
2022/03/21 07:37:18;;;;;;;29.38;19.70;;;5.20;71.70;;;;;;4989382;28;20210;-91
2022/03/21 07:39:46;;;;;;;35.20;20.70;;;5.30;71.30;;;;;;4989895;28;20194;-91
2022/03/21 07:42:16;;;;;;;30.38;19.40;;;5.50;71.10;;;;;;4996163;28;20222;-94
2022/03/21 07:47:27;;;;;;;26.70;17.15;;;5.80;70.90;;;;;;4979806;28;20338;-94
2022/03/21 07:49:56;;;;;;;29.10;19.85;;;5.90;70.20;;;;;;4990911;28;20606;-89
2022/03/21 07:52:25;;;;;;;25.90;17.52;;;6.00;70.50;;;;;;4974836;28;20533;-90
2022/03/21 07:54:56;;;;;;;28.92;19.83;;;6.20;69.90;;;;;;4978706;28;20184;-93
2022/03/21 07:57:23;;;;;;;25.48;19.00;;;6.40;70.20;;;;;;4984314;28;20262;-91
2022/03/21 07:59:51;;;;;;;26.13;19.05;;;6.50;69.60;;;;;;4993109;28;20253;-94
2022/03/21 08:06:34;;;;;;;28.13;19.60;;;6.90;70.30;;;;;;4997463;28;21239;-92
2022/03/21 08:12:35;;;;;;;28.63;19.95;;;7.30;68.70;;;;;;4957715;26;20720;-70
2022/03/21 08:15:08;;;;;;;25.70;19.67;;;7.50;68.70;;;;;;4987160;28;20905;-69
2022/03/21 08:17:49;;;;;;;28.20;19.08;;;7.80;68.60;;;;;;4984647;28;20190;-70
2022/03/21 08:20:19;;;;;;;26.33;19.17;;;8.00;68.20;;;;;;4980844;28;20371;-69
2022/03/21 08:22:47;;;;;;;27.42;19.35;;;8.20;68.40;;;;;;4982123;28;20185;-68
2022/03/21 08:25:16;;;;;;;26.52;18.30;;;8.50;67.70;;;;;;5014825;28;20249;-69
2022/03/21 08:27:51;;;;;;;27.02;18.52;;;8.90;68.60;;;;;;5001469;28;20175;-70
2022/03/21 08:30:18;;;;;;;25.70;18.90;;;9.50;67.00;;;;;;5001385;28;20214;-69
2022/03/21 08:32:45;;;;;;;24.92;18.58;;;10.30;66.10;;;;;;4996095;28;20267;-70
2022/03/21 08:35:20;;;;;;;27.58;19.48;;;11.10;65.30;;;;;;5008259;28;21971;-69
2022/03/21 08:37:48;;;;;;;27.33;20.45;;;12.10;63.80;;;;;;5008455;28;20189;-70
2022/03/21 08:40:16;;;;;;;23.02;19.38;;;13.30;61.40;;;;;;4997238;28;20203;-69
2022/03/21 08:42:42;;;;;;;26.50;18.33;;;14.40;59.10;;;;;;5001102;28;20238;-69
2022/03/21 08:45:15;;;;;;;25.53;20.47;;;15.50;58.10;;;;;;5009342;28;20439;-69
2022/03/21 08:47:42;;;;;;;22.97;18.77;;;16.40;57.00;;;;;;5007258;28;20451;-69
2022/03/21 08:50:09;;;;;;;27.33;19.60;;;17.30;56.00;;;;;;4981616;28;20553;-69
2022/03/21 08:52:36;;;;;;;28.87;20.87;;;18.00;55.10;;;;;;4987270;28;20774;-69
2022/03/21 08:55:07;;;;;;;23.80;18.90;;;18.60;54.60;;;;;;4983578;28;20986;-69
2022/03/21 08:57:33;;;;;;;23.27;19.83;;;19.20;52.90;;;;;;4989096;28;20867;-70
2022/03/21 09:00:05;;;;;;;24.53;18.87;;;19.70;52.50;;;;;;5007554;28;20500;-70
2022/03/21 09:02:36;;;;;;;23.27;18.60;;;20.20;51.40;;;;;;5003668;28;20575;-71
2022/03/21 09:05:07;;;;;;;23.40;18.20;;;20.50;50.70;;;;;;5001231;28;20423;-70
2022/03/21 09:07:45;;;;;;;21.37;18.07;;;20.80;50.60;;;;;;5004188;28;20516;-70
2022/03/21 09:10:15;;;;;;;23.50;18.40;;;21.00;49.80;;;;;;5001397;28;20513;-70
2022/03/21 09:12:48;;;;;;;21.03;18.50;;;21.10;49.30;;;;;;4989417;28;20437;-70
2022/03/21 09:15:18;;;;;;;25.67;18.77;;;21.10;49.40;;;;;;4980584;28;20468;-70
2022/03/21 09:17:47;;;;;;;21.83;18.37;;;20.80;49.10;;;;;;4984526;28;20415;-70
2022/03/21 09:20:17;;;;;;;25.30;19.47;;;20.80;49.40;;;;;;4991494;28;20502;-71
2022/03/21 09:22:45;;;;;;;23.10;18.40;;;20.70;49.20;;;;;;4966747;28;20437;-70
2022/03/21 09:25:18;;;;;;;22.20;17.57;;;20.50;49.10;;;;;;4976794;28;20454;-69
2022/03/21 09:28:12;;;;;;;26.43;17.90;;;20.20;49.60;;;;;;4982490;28;20429;-70
2022/03/21 09:30:47;;;;;;;26.37;17.67;;;19.80;48.40;;;;;;4975293;28;20496;-71
2022/03/21 09:33:16;;;;;;;19.37;17.30;;;19.50;49.10;;;;;;4976972;28;20421;-73
2022/03/21 09:36:05;;;;;;;22.90;17.70;;;19.50;49.70;;;;;;4982080;28;20457;-69
2022/03/21 09:38:32;;;;;;;17.73;15.73;;;19.50;49.60;;;;;;4978085;28;20853;-70
2022/03/21 09:41:01;;;;;;;18.83;16.83;;;19.40;49.30;;;;;;4987346;28;20481;-68
2022/03/21 09:43:30;;;;;;;21.40;17.20;;;19.20;48.90;;;;;;4988003;28;20513;-74
2022/03/21 09:45:58;;;;;;;23.30;15.70;;;19.00;49.80;;;;;;4981751;28;20665;-74
2022/03/21 09:48:35;;;;;;;20.23;17.80;;;18.90;49.30;;;;;;4987568;28;20440;-74
2022/03/21 09:51:23;;;;;;;19.80;17.03;;;18.80;49.60;;;;;;4992919;28;20465;-70
2022/03/21 09:53:55;;;;;;;22.47;17.60;;;18.90;49.30;;;;;;4987725;28;20422;-70
2022/03/21 09:56:21;;;;;;;24.50;16.63;;;18.90;49.60;;;;;;4985366;28;20508;-73
2022/03/21 09:58:47;;;;;;;18.80;15.63;;;19.00;49.00;;;;;;4991500;28;20417;-73
2022/03/21 10:01:17;;;;;;;22.60;18.13;;;19.00;48.70;;;;;;4984277;28;20824;-74
2022/03/21 10:03:45;;;;;;;23.17;17.47;;;19.10;48.90;;;;;;4980904;28;20433;-69
2022/03/21 10:09:25;;;;;;;18.77;16.37;;;19.40;48.90;;;;;;4983260;28;20460;-72
2022/03/21 10:11:57;;;;;;;17.60;15.47;;;19.40;49.20;;;;;;5002677;28;20495;-73
2022/03/21 10:14:39;;;;;;;20.10;16.60;;;19.40;49.40;;;;;;4999133;28;20666;-73
2022/03/21 10:17:22;;;;;;;17.40;15.23;;;19.30;49.20;;;;;;5002735;28;20487;-73
2022/03/21 10:19:53;;;;;;;17.53;14.10;;;19.10;49.50;;;;;;5007102;28;20867;-73
2022/03/21 10:22:43;;;;;;;16.97;14.10;;;18.90;51.20;;;;;;5003016;28;20453;-72
2022/03/21 10:25:16;;;;;;;18.23;15.00;;;18.50;51.80;;;;;;4999204;28;20503;-73
2022/03/21 10:27:45;;;;;;;18.20;15.10;;;18.20;49.00;;;;;;4997206;28;20762;-73
2022/03/21 10:30:23;;;;;;;15.17;12.20;;;17.80;49.40;;;;;;5007690;28;20459;-73
2022/03/21 10:33:00;;;;;;;21.23;14.43;;;17.50;50.40;;;;;;5004289;28;20444;-69
2022/03/21 10:35:31;;;;;;;18.20;14.70;;;17.20;51.30;;;;;;5005994;28;20898;-72
2022/03/21 10:38:00;;;;;;;18.60;13.63;;;16.80;50.10;;;;;;5008896;28;20429;-70
2022/03/21 10:40:28;;;;;;;19.20;14.50;;;16.40;50.10;;;;;;5000285;28;20484;-73
2022/03/21 10:42:59;;;;;;;16.40;12.13;;;16.10;50.10;;;;;;4999808;28;20445;-70
2022/03/21 10:45:35;;;;;;;18.03;12.73;;;16.00;51.30;;;;;;5017861;28;20211;-74
2022/03/21 10:48:10;;;;;;;19.37;14.53;;;15.80;50.70;;;;;;5006251;28;20936;-73
2022/03/21 10:50:40;;;;;;;20.70;13.40;;;15.60;50.20;;;;;;5021611;28;20460;-74
2022/03/21 10:53:20;;;;;;;15.20;11.20;;;15.40;50.70;;;;;;5003288;28;20461;-70
2022/03/21 10:55:48;;;;;;;14.47;11.90;;;15.30;49.80;;;;;;5003859;28;20462;-71
2022/03/21 10:58:34;;;;;;;16.90;13.40;;;15.20;49.90;;;;;;5005787;28;20416;-74
2022/03/21 11:01:24;;;;;;;17.80;13.00;;;15.20;50.50;;;;;;5011344;28;20516;-74
2022/03/21 11:04:03;;;;;;;15.40;12.17;;;15.10;50.20;;;;;;5004693;28;21025;-70
2022/03/21 11:06:32;;;;;;;14.70;12.30;;;15.10;50.00;;;;;;5004191;28;20814;-75
2022/03/21 11:09:00;;;;;;;15.83;13.17;;;15.00;50.20;;;;;;5005103;28;20424;-68
2022/03/21 11:11:26;;;;;;;18.00;13.33;;;15.00;50.40;;;;;;5001612;28;20497;-73
2022/03/21 11:13:53;;;;;;;14.83;13.00;;;15.00;50.90;;;;;;5003139;28;20428;-69
2022/03/21 11:16:22;;;;;;;15.50;13.40;;;15.00;51.00;;;;;;4999253;28;20484;-71
2022/03/21 11:18:51;;;;;;;18.13;13.70;;;15.00;50.90;;;;;;5007694;28;20416;-73
2022/03/21 11:21:19;;;;;;;18.57;13.60;;;15.00;50.60;;;;;;5005559;28;20492;-69
2022/03/21 11:23:46;;;;;;;16.80;13.90;;;15.00;51.20;;;;;;5004029;28;20408;-73
2022/03/21 11:26:56;;;;;;;17.67;13.17;;;15.00;52.10;;;;;;5007349;28;20468;-69
2022/03/21 11:29:55;;;;;;;17.57;11.23;;;15.20;51.50;;;;;;5003102;28;20420;-74
2022/03/21 11:32:31;;;;;;;15.30;12.27;;;15.20;51.50;;;;;;4951060;28;20886;-74
2022/03/21 11:35:28;;;;;;;15.13;12.00;;;15.30;50.60;;;;;;5008880;28;20468;-70
2022/03/21 11:38:27;;;;;;;15.23;13.47;;;15.30;49.90;;;;;;5010176;28;20440;-69
2022/03/21 11:41:38;;;;;;;16.63;12.63;;;15.30;49.80;;;;;;5004956;28;20492;-74
2022/03/21 11:44:15;;;;;;;17.33;12.93;;;15.30;50.40;;;;;;5011678;28;20430;-74
2022/03/21 11:46:47;;;;;;;18.93;12.70;;;15.30;50.60;;;;;;5005333;28;20515;-74
2022/03/21 11:49:19;;;;;;;14.10;11.97;;;15.30;50.60;;;;;;5002659;28;20627;-70
2022/03/21 11:51:55;;;;;;;16.83;12.00;;;15.40;50.60;;;;;;5006675;28;20464;-70
2022/03/21 11:54:32;;;;;;;17.33;11.90;;;15.40;50.60;;;;;;4997724;28;20743;-70
2022/03/21 11:57:11;;;;;;;14.30;12.80;;;15.50;53.80;;;;;;5005853;28;21051;-70
2022/03/21 11:59:39;;;;;;;16.03;12.53;;;15.40;49.70;;;;;;5003160;28;20428;-74
2022/03/21 12:02:13;;;;;;;14.97;12.57;;;15.30;50.20;;;;;;4995387;28;20577;-70
2022/03/21 12:04:57;;;;;;;17.10;13.70;;;15.30;50.60;;;;;;5007515;28;20437;-69
2022/03/21 12:07:27;;;;;;;14.70;10.80;;;15.30;50.20;;;;;;5000846;28;20424;-69
2022/03/21 12:09:57;;;;;;;12.87;10.40;;;15.40;50.40;;;;;;5002401;28;20437;-73
2022/03/21 12:12:41;;;;;;;16.10;10.90;;;15.40;50.40;;;;;;4996947;28;20567;-71
2022/03/21 12:15:31;;;;;;;14.83;11.17;;;15.40;50.00;;;;;;5002527;28;20460;-69
2022/03/21 12:17:58;;;;;;;17.80;11.90;;;15.40;52.40;;;;;;4995692;28;20437;-70
2022/03/21 12:20:43;;;;;;;13.70;11.17;;;15.40;49.60;;;;;;4995627;28;20515;-74
2022/03/21 12:23:21;;;;;;;16.57;12.10;;;15.30;49.20;;;;;;5000156;28;20474;-70
2022/03/21 12:26:04;;;;;;;18.43;12.90;;;15.20;49.60;;;;;;4995024;28;20784;-74
2022/03/21 12:31:33;;;;;;;16.67;12.20;;;15.20;49.30;;;;;;4998183;28;20475;-69
2022/03/21 12:34:36;;;;;;;15.10;11.50;;;15.20;49.50;;;;;;5002561;28;20444;-70
2022/03/21 12:37:32;;;;;;;15.00;11.37;;;15.20;49.90;;;;;;4994575;28;20489;-74
2022/03/21 12:40:03;;;;;;;15.50;11.20;;;15.30;50.10;;;;;;5016206;28;20483;-72
2022/03/21 12:42:30;;;;;;;13.53;12.10;;;15.30;50.20;;;;;;5002140;28;20535;-74
2022/03/21 12:45:00;;;;;;;13.27;10.87;;;15.30;49.70;;;;;;5002052;28;20429;-73
2022/03/21 12:47:27;;;;;;;16.07;11.90;;;15.30;49.60;;;;;;4995925;28;20425;-69
2022/03/21 12:49:55;;;;;;;13.30;10.90;;;15.30;49.60;;;;;;4999617;28;20914;-74
2022/03/21 12:52:27;;;;;;;12.13;10.50;;;15.40;49.60;;;;;;5003722;28;21081;-70
2022/03/21 12:54:53;;;;;;;15.77;11.20;;;15.40;49.20;;;;;;4995752;28;20442;-74
2022/03/21 12:57:25;;;;;;;14.33;10.83;;;15.40;48.70;;;;;;5000803;28;21024;-74
2022/03/21 12:59:51;;;;;;;16.47;11.77;;;15.40;48.90;;;;;;4997582;28;20967;-70
2022/03/21 13:02:33;;;;;;;14.87;12.43;;;15.40;49.20;;;;;;4997318;28;20429;-70
2022/03/21 13:10:54;;;;;;;13.03;10.80;;;15.30;49.10;;;;;;5007918;28;20620;-74
2022/03/21 13:13:40;;;;;;;13.47;11.07;;;15.30;51.20;;;;;;5019196;28;20485;-73
2022/03/21 13:16:09;;;;;;;12.40;10.83;;;15.20;50.30;;;;;;5002753;28;20827;-70
2022/03/21 13:18:41;;;;;;;13.43;11.50;;;15.10;49.00;;;;;;5003270;28;20894;-70
2022/03/21 13:21:09;;;;;;;14.37;12.40;;;15.10;48.70;;;;;;5012912;28;20491;-74
2022/03/21 13:23:36;;;;;;;12.07;10.77;;;15.20;48.60;;;;;;5004452;28;20444;-74
2022/03/21 13:26:16;;;;;;;12.90;10.33;;;15.20;49.10;;;;;;5012009;28;20459;-70